sensor_id;sensor_type;location;lat;lon;timestamp;pressure;altitude;pressure_sealevel;temperature;humidity
8069;BME280;4077;43.702;24.896;2023-03-25T00:01:01;99022.91;;;6.75;100.00
8069;BME280;4077;43.702;24.896;2023-03-25T00:03:31;99018.50;;;6.68;100.00
8069;BME280;4077;43.702;24.896;2023-03-25T00:06:04;99024.41;;;6.64;100.00
8069;BME280;4077;43.702;24.896;2023-03-25T00:08:31;99021.69;;;6.56;100.00
8069;BME280;4077;43.702;24.896;2023-03-25T00:10:59;99017.25;;;6.47;100.00
8069;BME280;4077;43.702;24.896;2023-03-25T00:13:25;99015.38;;;6.39;100.00
8069;BME280;4077;43.702;24.896;2023-03-25T00:15:52;99011.72;;;6.29;100.00
8069;BME280;4077;43.702;24.896;2023-03-25T00:18:19;99006.56;;;6.26;100.00
8069;BME280;4077;43.702;24.896;2023-03-25T00:20:48;98998.63;;;6.14;100.00
8069;BME280;4077;43.702;24.896;2023-03-25T00:23:16;99010.97;;;6.33;100.00
8069;BME280;4077;43.702;24.896;2023-03-25T00:25:41;99012.81;;;6.39;100.00
8069;BME280;4077;43.702;24.896;2023-03-25T00:28:10;99012.03;;;6.44;100.00
8069;BME280;4077;43.702;24.896;2023-03-25T00:30:37;99014.69;;;6.47;100.00
8069;BME280;4077;43.702;24.896;2023-03-25T00:33:02;99011.03;;;6.36;100.00
8069;BME280;4077;43.702;24.896;2023-03-25T00:35:28;99009.31;;;6.35;100.00
8069;BME280;4077;43.702;24.896;2023-03-25T00:37:55;99016.47;;;6.51;100.00
8069;BME280;4077;43.702;24.896;2023-03-25T00:40:29;99014.72;;;6.49;100.00
8069;BME280;4077;43.702;24.896;2023-03-25T00:42:59;99022.94;;;6.34;100.00
8069;BME280;4077;43.702;24.896;2023-03-25T00:45:25;99003.91;;;6.23;100.00
8069;BME280;4077;43.702;24.896;2023-03-25T00:47:50;99012.53;;;6.25;100.00
8069;BME280;4077;43.702;24.896;2023-03-25T00:50:16;99004.03;;;6.29;100.00
8069;BME280;4077;43.702;24.896;2023-03-25T00:52:41;99001.16;;;6.14;100.00
8069;BME280;4077;43.702;24.896;2023-03-25T00:55:07;99002.75;;;6.07;100.00
8069;BME280;4077;43.702;24.896;2023-03-25T00:57:33;99000.28;;;6.12;100.00
8069;BME280;4077;43.702;24.896;2023-03-25T00:59:58;98986.41;;;6.03;100.00
8069;BME280;4077;43.702;24.896;2023-03-25T01:02:24;98982.09;;;5.99;100.00
8069;BME280;4077;43.702;24.896;2023-03-25T01:04:50;98987.03;;;5.92;100.00
8069;BME280;4077;43.702;24.896;2023-03-25T01:07:19;98967.25;;;5.86;100.00
8069;BME280;4077;43.702;24.896;2023-03-25T01:09:45;98984.50;;;5.93;100.00
8069;BME280;4077;43.702;24.896;2023-03-25T01:12:12;98984.44;;;5.90;100.00
8069;BME280;4077;43.702;24.896;2023-03-25T01:14:38;98977.94;;;6.05;100.00
8069;BME280;4077;43.702;24.896;2023-03-25T01:17:04;98984.50;;;5.93;100.00
8069;BME280;4077;43.702;24.896;2023-03-25T01:19:30;98977.66;;;5.92;100.00
8069;BME280;4077;43.702;24.896;2023-03-25T01:21:56;98974.03;;;5.84;100.00
8069;BME280;4077;43.702;24.896;2023-03-25T01:24:21;98954.97;;;5.70;100.00
8069;BME280;4077;43.702;24.896;2023-03-25T01:26:47;98960.03;;;5.68;100.00
8069;BME280;4077;43.702;24.896;2023-03-25T01:29:14;98951.47;;;5.68;100.00
8069;BME280;4077;43.702;24.896;2023-03-25T01:31:40;98956.53;;;5.65;100.00
8069;BME280;4077;43.702;24.896;2023-03-25T01:34:06;98955.72;;;5.66;100.00
8069;BME280;4077;43.702;24.896;2023-03-25T01:36:33;98953.88;;;5.60;100.00
8069;BME280;4077;43.702;24.896;2023-03-25T01:39:00;98953.97;;;5.63;100.00
8069;BME280;4077;43.702;24.896;2023-03-25T01:41:27;98946.28;;;5.63;100.00
8069;BME280;4077;43.702;24.896;2023-03-25T01:45:02;98943.91;;;5.72;100.00
8069;BME280;4077;43.702;24.896;2023-03-25T01:46:52;98935.06;;;5.58;100.00
8069;BME280;4077;43.702;24.896;2023-03-25T01:51:57;98924.81;;;5.58;100.00
8069;BME280;4077;43.702;24.896;2023-03-25T01:54:23;98917.88;;;5.54;100.00
8069;BME280;4077;43.702;24.896;2023-03-25T01:56:49;98912.00;;;5.57;100.00
8069;BME280;4077;43.702;24.896;2023-03-25T01:59:17;98907.66;;;5.54;100.00
8069;BME280;4077;43.702;24.896;2023-03-25T02:01:45;98908.66;;;5.61;100.00
8069;BME280;4077;43.702;24.896;2023-03-25T02:04:12;98906.88;;;5.57;100.00
8069;BME280;4077;43.702;24.896;2023-03-25T02:06:41;98912.84;;;5.57;100.00
8069;BME280;4077;43.702;24.896;2023-03-25T02:09:07;98902.81;;;5.66;100.00
8069;BME280;4077;43.702;24.896;2023-03-25T02:11:36;98904.50;;;5.66;100.00
8069;BME280;4077;43.702;24.896;2023-03-25T02:14:06;98894.88;;;5.56;100.00
8069;BME280;4077;43.702;24.896;2023-03-25T02:16:51;98898.50;;;5.64;100.00
8069;BME280;4077;43.702;24.896;2023-03-25T02:19:58;98898.69;;;5.73;100.00
8069;BME280;4077;43.702;24.896;2023-03-25T02:39:53;98892.91;;;5.42;100.00
8069;BME280;4077;43.702;24.896;2023-03-25T02:42:40;98881.75;;;5.40;100.00
8069;BME280;4077;43.702;24.896;2023-03-25T02:45:14;98897.09;;;5.39;100.00
8069;BME280;4077;43.702;24.896;2023-03-25T02:47:51;98902.44;;;5.49;100.00
8069;BME280;4077;43.702;24.896;2023-03-25T02:50:24;98906.72;;;5.49;100.00
8069;BME280;4077;43.702;24.896;2023-03-25T02:52:55;98897.38;;;5.53;100.00
8069;BME280;4077;43.702;24.896;2023-03-25T02:55:23;98897.38;;;5.53;100.00
8069;BME280;4077;43.702;24.896;2023-03-25T02:57:55;98886.19;;;5.47;100.00
8069;BME280;4077;43.702;24.896;2023-03-25T03:00:25;98874.06;;;5.40;100.00
8069;BME280;4077;43.702;24.896;2023-03-25T03:02:57;98876.59;;;5.37;100.00
8069;BME280;4077;43.702;24.896;2023-03-25T03:05:32;98885.78;;;5.29;100.00
8069;BME280;4077;43.702;24.896;2023-03-25T03:16:44;98885.53;;;5.56;100.00
8069;BME280;4077;43.702;24.896;2023-03-25T03:22:00;98896.56;;;5.54;100.00
8069;BME280;4077;43.702;24.896;2023-03-25T03:24:38;98875.75;;;5.38;100.00
8069;BME280;4077;43.702;24.896;2023-03-25T03:27:10;98894.69;;;5.46;100.00
8069;BME280;4077;43.702;24.896;2023-03-25T03:29:50;98891.78;;;5.31;100.00
8069;BME280;4077;43.702;24.896;2023-03-25T03:32:21;98890.81;;;5.26;100.00
8069;BME280;4077;43.702;24.896;2023-03-25T03:34:55;98895.88;;;5.23;100.00
8069;BME280;4077;43.702;24.896;2023-03-25T03:37:27;98902.72;;;5.24;100.00
8069;BME280;4077;43.702;24.896;2023-03-25T03:39:55;98901.78;;;5.20;100.00
8069;BME280;4077;43.702;24.896;2023-03-25T03:42:32;98904.31;;;5.19;100.00
8069;BME280;4077;43.702;24.896;2023-03-25T03:45:02;98903.56;;;5.23;100.00
8069;BME280;4077;43.702;24.896;2023-03-25T03:47:35;98897.09;;;5.03;100.00
8069;BME280;4077;43.702;24.896;2023-03-25T03:50:13;98898.63;;;4.94;100.00
8069;BME280;4077;43.702;24.896;2023-03-25T03:55:24;98905.97;;;4.81;100.00
8069;BME280;4077;43.702;24.896;2023-03-25T03:57:56;98893.88;;;4.75;100.00
8069;BME280;4077;43.702;24.896;2023-03-25T04:00:55;98891.75;;;4.93;100.00
8069;BME280;4077;43.702;24.896;2023-03-25T04:03:30;98883.31;;;4.61;100.00
8069;BME280;4077;43.702;24.896;2023-03-25T04:06:12;98875.53;;;4.57;100.00
8069;BME280;4077;43.702;24.896;2023-03-25T04:08:52;98863.59;;;4.57;100.00
8069;BME280;4077;43.702;24.896;2023-03-25T04:11:39;98875.28;;;4.48;100.00
8069;BME280;4077;43.702;24.896;2023-03-25T04:14:07;98871.91;;;4.49;100.00
8069;BME280;4077;43.702;24.896;2023-03-25T04:16:34;98872.81;;;4.51;100.00
8069;BME280;4077;43.702;24.896;2023-03-25T04:19:03;98882.34;;;4.58;100.00
8069;BME280;4077;43.702;24.896;2023-03-25T04:21:30;98872.09;;;4.56;100.00
8069;BME280;4077;43.702;24.896;2023-03-25T04:23:55;98880.94;;;4.69;100.00
8069;BME280;4077;43.702;24.896;2023-03-25T04:26:29;98894.19;;;4.87;100.00
8069;BME280;4077;43.702;24.896;2023-03-25T04:28:59;98883.19;;;4.91;100.00
8069;BME280;4077;43.702;24.896;2023-03-25T04:31:26;98900.50;;;5.02;100.00
8069;BME280;4077;43.702;24.896;2023-03-25T04:33:55;98905.72;;;5.08;100.00
8069;BME280;4077;43.702;24.896;2023-03-25T04:36:23;98906.56;;;5.07;100.00
8069;BME280;4077;43.702;24.896;2023-03-25T04:38:48;98913.53;;;5.12;100.00
8069;BME280;4077;43.702;24.896;2023-03-25T04:41:14;98922.16;;;5.16;100.00
8069;BME280;4077;43.702;24.896;2023-03-25T04:43:39;98912.66;;;5.12;100.00
8069;BME280;4077;43.702;24.896;2023-03-25T04:46:07;98917.94;;;5.18;100.00
8069;BME280;4077;43.702;24.896;2023-03-25T04:48:35;98933.34;;;5.21;100.00
8069;BME280;4077;43.702;24.896;2023-03-25T04:51:06;98935.28;;;5.31;100.00
8069;BME280;4077;43.702;24.896;2023-03-25T04:53:35;98933.53;;;5.29;100.00
8069;BME280;4077;43.702;24.896;2023-03-25T04:56:00;98936.72;;;5.20;100.00
8069;BME280;4077;43.702;24.896;2023-03-25T04:58:25;98933.41;;;5.24;100.00
8069;BME280;4077;43.702;24.896;2023-03-25T05:00:51;98940.78;;;5.10;100.00
8069;BME280;4077;43.702;24.896;2023-03-25T05:03:18;98932.06;;;5.02;100.00
8069;BME280;4077;43.702;24.896;2023-03-25T05:05:49;98928.47;;;4.96;100.00
8069;BME280;4077;43.702;24.896;2023-03-25T05:08:15;98922.22;;;4.84;100.00
8069;BME280;4077;43.702;24.896;2023-03-25T05:10:41;98924.31;;;5.01;100.00
8069;BME280;4077;43.702;24.896;2023-03-25T05:13:07;98929.59;;;5.07;100.00
8069;BME280;4077;43.702;24.896;2023-03-25T05:15:34;98930.72;;;5.18;100.00
8069;BME280;4077;43.702;24.896;2023-03-25T05:18:11;98940.31;;;5.28;100.00
8069;BME280;4077;43.702;24.896;2023-03-25T05:20:39;98939.78;;;5.41;100.00
8069;BME280;4077;43.702;24.896;2023-03-25T05:23:09;98932.34;;;5.51;100.00
8069;BME280;4077;43.702;24.896;2023-03-25T05:25:39;98941.00;;;5.57;100.00
8069;BME280;4077;43.702;24.896;2023-03-25T05:28:06;98933.34;;;5.57;100.00
8069;BME280;4077;43.702;24.896;2023-03-25T05:30:35;98923.28;;;5.66;100.00
8069;BME280;4077;43.702;24.896;2023-03-25T05:33:04;98917.56;;;5.78;100.00
8069;BME280;4077;43.702;24.896;2023-03-25T05:35:29;98937.56;;;5.94;100.00
8069;BME280;4077;43.702;24.896;2023-03-25T05:37:55;98929.25;;;6.05;100.00
8069;BME280;4077;43.702;24.896;2023-03-25T05:40:20;98932.75;;;6.10;100.00
8069;BME280;4077;43.702;24.896;2023-03-25T05:42:46;98927.88;;;6.22;100.00
8069;BME280;4077;43.702;24.896;2023-03-25T05:45:14;98926.41;;;6.33;100.00
8069;BME280;4077;43.702;24.896;2023-03-25T05:47:40;98927.56;;;6.50;100.00
8069;BME280;4077;43.702;24.896;2023-03-25T05:50:06;98939.66;;;6.57;100.00
8069;BME280;4077;43.702;24.896;2023-03-25T05:52:33;98937.31;;;6.70;100.00
8069;BME280;4077;43.702;24.896;2023-03-25T05:54:58;98936.66;;;6.80;100.00
8069;BME280;4077;43.702;24.896;2023-03-25T05:57:24;98946.31;;;6.95;100.00
8069;BME280;4077;43.702;24.896;2023-03-25T05:59:49;98948.94;;;6.99;100.00
8069;BME280;4077;43.702;24.896;2023-03-25T06:02:15;98941.41;;;7.08;100.00
8069;BME280;4077;43.702;24.896;2023-03-25T06:04:42;98957.31;;;8.01;100.00
8069;BME280;4077;43.702;24.896;2023-03-25T06:07:09;98964.41;;;8.95;100.00
8069;BME280;4077;43.702;24.896;2023-03-25T06:09:40;98977.94;;;9.77;100.00
8069;BME280;4077;43.702;24.896;2023-03-25T06:12:20;98986.97;;;10.62;100.00
8069;BME280;4077;43.702;24.896;2023-03-25T06:14:46;98988.78;;;11.58;100.00
8069;BME280;4077;43.702;24.896;2023-03-25T06:17:15;98996.16;;;12.89;100.00
8069;BME280;4077;43.702;24.896;2023-03-25T06:19:43;99007.59;;;14.60;88.57
8069;BME280;4077;43.702;24.896;2023-03-25T06:22:09;99025.94;;;15.70;73.69
8069;BME280;4077;43.702;24.896;2023-03-25T06:24:39;99038.13;;;16.63;67.96
8069;BME280;4077;43.702;24.896;2023-03-25T06:27:08;99038.50;;;17.63;62.59
8069;BME280;4077;43.702;24.896;2023-03-25T06:29:36;99038.28;;;18.40;58.06
8069;BME280;4077;43.702;24.896;2023-03-25T06:32:03;99054.16;;;19.52;54.66
8069;BME280;4077;43.702;24.896;2023-03-25T06:34:29;99059.03;;;19.64;53.22
8069;BME280;4077;43.702;24.896;2023-03-25T06:36:57;99055.00;;;19.81;52.89
8069;BME280;4077;43.702;24.896;2023-03-25T06:39:23;99061.94;;;19.82;52.27
8069;BME280;4077;43.702;24.896;2023-03-25T06:41:48;99066.56;;;20.00;52.13
8069;BME280;4077;43.702;24.896;2023-03-25T06:44:14;99066.81;;;20.19;51.49
8069;BME280;4077;43.702;24.896;2023-03-25T06:46:39;99063.81;;;20.05;51.21
8069;BME280;4077;43.702;24.896;2023-03-25T06:49:05;99067.94;;;19.85;51.51
8069;BME280;4077;43.702;24.896;2023-03-25T06:51:30;99073.63;;;19.98;52.31
8069;BME280;4077;43.702;24.896;2023-03-25T06:53:56;99092.28;;;20.65;51.74
8069;BME280;4077;43.702;24.896;2023-03-25T06:56:21;99100.75;;;21.44;50.23
8069;BME280;4077;43.702;24.896;2023-03-25T06:58:47;99107.41;;;21.96;49.16
8069;BME280;4077;43.702;24.896;2023-03-25T07:01:12;99118.16;;;22.12;47.91
8069;BME280;4077;43.702;24.896;2023-03-25T07:03:37;99112.94;;;22.53;47.63
8069;BME280;4077;43.702;24.896;2023-03-25T07:06:04;99118.69;;;22.81;45.24
8069;BME280;4077;43.702;24.896;2023-03-25T07:08:30;99114.47;;;22.57;44.68
8069;BME280;4077;43.702;24.896;2023-03-25T07:11:04;99122.19;;;22.21;44.87
8069;BME280;4077;43.702;24.896;2023-03-25T07:13:30;99121.66;;;21.91;46.20
8069;BME280;4077;43.702;24.896;2023-03-25T07:15:57;99120.81;;;22.53;46.28
8069;BME280;4077;43.702;24.896;2023-03-25T07:18:22;99125.66;;;22.21;45.55
8069;BME280;4077;43.702;24.896;2023-03-25T07:20:48;99121.22;;;21.57;46.27
8069;BME280;4077;43.702;24.896;2023-03-25T07:23:13;99100.38;;;19.53;50.06
8069;BME280;4077;43.702;24.896;2023-03-25T07:25:39;99087.44;;;19.77;51.45
8069;BME280;4077;43.702;24.896;2023-03-25T07:28:04;99080.38;;;19.23;52.42
8069;BME280;4077;43.702;24.896;2023-03-25T07:30:30;99064.31;;;18.43;53.64
8069;BME280;4077;43.702;24.896;2023-03-25T07:32:55;99079.38;;;18.68;53.53
8069;BME280;4077;43.702;24.896;2023-03-25T07:35:21;99078.72;;;18.91;54.27
8069;BME280;4077;43.702;24.896;2023-03-25T07:37:46;99072.59;;;19.20;52.68
8069;BME280;4077;43.702;24.896;2023-03-25T07:40:12;99067.13;;;19.27;51.77
8069;BME280;4077;43.702;24.896;2023-03-25T07:42:37;99074.59;;;19.11;51.66
8069;BME280;4077;43.702;24.896;2023-03-25T07:45:04;99061.59;;;18.79;52.31
8069;BME280;4077;43.702;24.896;2023-03-25T07:47:30;99064.06;;;18.52;52.57
8069;BME280;4077;43.702;24.896;2023-03-25T07:49:55;99070.63;;;18.36;53.18
8069;BME280;4077;43.702;24.896;2023-03-25T07:52:21;99067.47;;;18.23;53.93
8069;BME280;4077;43.702;24.896;2023-03-25T07:54:46;99059.84;;;18.16;53.79
8069;BME280;4077;43.702;24.896;2023-03-25T07:57:12;99047.88;;;18.07;53.87
8069;BME280;4077;43.702;24.896;2023-03-25T07:59:38;99055.97;;;17.96;54.12
8069;BME280;4077;43.702;24.896;2023-03-25T08:02:03;99052.66;;;17.90;54.59
8069;BME280;4077;43.702;24.896;2023-03-25T08:04:29;99032.88;;;17.81;54.89
8069;BME280;4077;43.702;24.896;2023-03-25T08:06:54;99036.69;;;17.29;55.60
8069;BME280;4077;43.702;24.896;2023-03-25T08:09:25;99028.44;;;16.70;57.61
8069;BME280;4077;43.702;24.896;2023-03-25T08:11:51;99028.66;;;16.58;58.83
8069;BME280;4077;43.702;24.896;2023-03-25T08:14:16;99039.88;;;16.63;59.78
8069;BME280;4077;43.702;24.896;2023-03-25T08:16:42;99041.44;;;16.72;60.25
8069;BME280;4077;43.702;24.896;2023-03-25T08:19:07;99047.72;;;17.03;59.99
8069;BME280;4077;43.702;24.896;2023-03-25T08:21:33;99050.03;;;17.17;59.26
8069;BME280;4077;43.702;24.896;2023-03-25T08:23:58;99052.97;;;17.40;59.31
8069;BME280;4077;43.702;24.896;2023-03-25T08:26:27;99057.97;;;17.49;58.84
8069;BME280;4077;43.702;24.896;2023-03-25T08:28:56;99045.28;;;17.34;59.69
8069;BME280;4077;43.702;24.896;2023-03-25T08:31:22;99050.88;;;17.55;58.55
8069;BME280;4077;43.702;24.896;2023-03-25T08:33:48;99055.56;;;17.79;57.14
8069;BME280;4077;43.702;24.896;2023-03-25T08:36:13;99052.34;;;18.02;58.25
8069;BME280;4077;43.702;24.896;2023-03-25T08:38:44;99049.75;;;18.35;57.20
8069;BME280;4077;43.702;24.896;2023-03-25T08:41:10;99048.81;;;18.37;56.43
8069;BME280;4077;43.702;24.896;2023-03-25T08:43:35;99056.69;;;18.36;56.99
8069;BME280;4077;43.702;24.896;2023-03-25T08:46:00;99043.34;;;18.14;57.52
8069;BME280;4077;43.702;24.896;2023-03-25T08:48:26;99049.69;;;18.03;58.42
8069;BME280;4077;43.702;24.896;2023-03-25T08:50:51;99054.22;;;17.98;59.72
8069;BME280;4077;43.702;24.896;2023-03-25T08:53:17;99058.03;;;18.18;59.65
8069;BME280;4077;43.702;24.896;2023-03-25T08:55:43;99057.22;;;18.48;58.56
8069;BME280;4077;43.702;24.896;2023-03-25T08:58:08;99053.97;;;18.71;60.66
8069;BME280;4077;43.702;24.896;2023-03-25T09:00:35;99053.53;;;18.86;59.81
8069;BME280;4077;43.702;24.896;2023-03-25T09:03:03;99050.28;;;18.47;59.03
8069;BME280;4077;43.702;24.896;2023-03-25T09:05:28;99041.66;;;17.77;59.32
8069;BME280;4077;43.702;24.896;2023-03-25T09:07:54;99044.91;;;17.49;61.22
8069;BME280;4077;43.702;24.896;2023-03-25T09:10:20;99037.66;;;17.62;60.82
8069;BME280;4077;43.702;24.896;2023-03-25T09:12:45;99038.88;;;18.19;59.85
8069;BME280;4077;43.702;24.896;2023-03-25T09:15:11;99035.59;;;18.11;58.55
8069;BME280;4077;43.702;24.896;2023-03-25T09:17:38;99031.41;;;18.36;58.07
8069;BME280;4077;43.702;24.896;2023-03-25T09:20:04;99039.94;;;18.75;56.30
8069;BME280;4077;43.702;24.896;2023-03-25T09:22:33;99045.75;;;18.85;56.63
8069;BME280;4077;43.702;24.896;2023-03-25T09:24:58;99044.19;;;18.78;56.94
8069;BME280;4077;43.702;24.896;2023-03-25T09:27:24;99046.91;;;19.04;56.97
8069;BME280;4077;43.702;24.896;2023-03-25T09:29:49;99038.78;;;19.13;55.83
8069;BME280;4077;43.702;24.896;2023-03-25T09:32:15;99028.16;;;19.46;55.33
8069;BME280;4077;43.702;24.896;2023-03-25T09:34:42;99034.59;;;19.90;53.75
8069;BME280;4077;43.702;24.896;2023-03-25T09:37:09;99031.97;;;20.15;53.34
8069;BME280;4077;43.702;24.896;2023-03-25T09:39:34;99033.09;;;20.58;51.30
8069;BME280;4077;43.702;24.896;2023-03-25T09:44:37;99040.91;;;20.83;49.83
8069;BME280;4077;43.702;24.896;2023-03-25T09:47:11;99035.50;;;20.64;50.48
8069;BME280;4077;43.702;24.896;2023-03-25T09:49:41;99028.66;;;20.84;50.16
8069;BME280;4077;43.702;24.896;2023-03-25T09:52:17;99022.47;;;20.86;49.63
8069;BME280;4077;43.702;24.896;2023-03-25T09:54:51;99008.19;;;20.93;49.37
8069;BME280;4077;43.702;24.896;2023-03-25T09:57:21;99007.34;;;20.69;49.80
8069;BME280;4077;43.702;24.896;2023-03-25T09:59:56;99007.13;;;20.52;49.83
8069;BME280;4077;43.702;24.896;2023-03-25T10:02:42;98998.56;;;20.47;49.24
8069;BME280;4077;43.702;24.896;2023-03-25T10:08:12;98983.06;;;19.91;50.60
8069;BME280;4077;43.702;24.896;2023-03-25T10:10:54;98975.50;;;19.82;50.45
8069;BME280;4077;43.702;24.896;2023-03-25T10:13:49;98978.63;;;19.93;50.06
8069;BME280;4077;43.702;24.896;2023-03-25T10:16:46;98975.78;;;19.99;49.99
8069;BME280;4077;43.702;24.896;2023-03-25T10:22:14;98974.09;;;19.98;49.67
8069;BME280;4077;43.702;24.896;2023-03-25T10:24:47;98970.97;;;19.87;50.20
8069;BME280;4077;43.702;24.896;2023-03-25T10:27:34;98968.94;;;19.95;51.37
8069;BME280;4077;43.702;24.896;2023-03-25T10:37:52;98965.47;;;21.34;48.47
8069;BME280;4077;43.702;24.896;2023-03-25T10:40:33;98961.91;;;21.56;47.53
8069;BME280;4077;43.702;24.896;2023-03-25T10:45:34;98960.50;;;21.70;48.56
8069;BME280;4077;43.702;24.896;2023-03-25T10:48:10;98960.94;;;21.59;48.94
8069;BME280;4077;43.702;24.896;2023-03-25T10:50:39;98968.03;;;21.57;49.08
8069;BME280;4077;43.702;24.896;2023-03-25T10:53:14;98966.09;;;21.82;48.58
8069;BME280;4077;43.702;24.896;2023-03-25T10:55:42;98968.47;;;21.67;48.46
8069;BME280;4077;43.702;24.896;2023-03-25T10:58:11;98959.44;;;21.32;50.38
8069;BME280;4077;43.702;24.896;2023-03-25T11:00:40;98949.69;;;20.68;48.05
8069;BME280;4077;43.702;24.896;2023-03-25T11:03:16;98938.81;;;20.55;48.94
8069;BME280;4077;43.702;24.896;2023-03-25T11:05:45;98943.34;;;20.27;49.91
8069;BME280;4077;43.702;24.896;2023-03-25T11:08:13;98944.28;;;20.49;49.52
8069;BME280;4077;43.702;24.896;2023-03-25T11:10:39;98935.72;;;20.67;49.66
8069;BME280;4077;43.702;24.896;2023-03-25T11:13:11;98935.06;;;20.84;50.62
8069;BME280;4077;43.702;24.896;2023-03-25T11:15:39;98929.56;;;20.68;49.37
8069;BME280;4077;43.702;24.896;2023-03-25T11:18:21;98928.41;;;20.97;49.18
8069;BME280;4077;43.702;24.896;2023-03-25T11:50:57;98897.47;;;21.27;44.73
8069;BME280;4077;43.702;24.896;2023-03-25T11:53:25;98890.72;;;21.20;44.65
8069;BME280;4077;43.702;24.896;2023-03-25T11:55:55;98888.38;;;21.14;44.88
8069;BME280;4077;43.702;24.896;2023-03-25T11:58:29;98878.19;;;21.28;45.98
8069;BME280;4077;43.702;24.896;2023-03-25T12:01:51;98882.22;;;21.97;45.88
8069;BME280;4077;43.702;24.896;2023-03-25T12:04:10;98883.56;;;21.66;44.65
8069;BME280;4077;43.702;24.896;2023-03-25T12:06:36;98885.50;;;21.42;45.23
8069;BME280;4077;43.702;24.896;2023-03-25T12:09:06;98882.59;;;21.28;45.95
8069;BME280;4077;43.702;24.896;2023-03-25T12:11:43;98882.31;;;21.12;45.81
8069;BME280;4077;43.702;24.896;2023-03-25T12:25:03;98858.91;;;20.86;46.42
8069;BME280;4077;43.702;24.896;2023-03-25T12:30:46;98857.22;;;20.85;46.74
8069;BME280;4077;43.702;24.896;2023-03-25T12:44:03;98849.00;;;20.94;48.71
8069;BME280;4077;43.702;24.896;2023-03-25T12:52:28;98834.84;;;20.54;48.41
8069;BME280;4077;43.702;24.896;2023-03-25T13:05:38;98818.38;;;20.05;50.78
8069;BME280;4077;43.702;24.896;2023-03-25T13:08:15;98821.63;;;20.12;50.48
8069;BME280;4077;43.702;24.896;2023-03-25T13:10:46;98815.78;;;20.04;50.95
8069;BME280;4077;43.702;24.896;2023-03-25T13:13:17;98820.16;;;20.03;51.28
8069;BME280;4077;43.702;24.896;2023-03-25T13:15:47;98815.25;;;20.17;51.45
8069;BME280;4077;43.702;24.896;2023-03-25T13:21:00;98808.53;;;20.10;52.72
8069;BME280;4077;43.702;24.896;2023-03-25T13:23:28;98807.28;;;20.20;52.64
8069;BME280;4077;43.702;24.896;2023-03-25T13:26:30;98806.00;;;20.31;51.18
8069;BME280;4077;43.702;24.896;2023-03-25T13:28:59;98804.84;;;20.38;52.29
8069;BME280;4077;43.702;24.896;2023-03-25T13:31:30;98817.59;;;20.48;51.38
8069;BME280;4077;43.702;24.896;2023-03-25T13:37:42;98808.44;;;20.13;52.11
8069;BME280;4077;43.702;24.896;2023-03-25T13:40:06;98804.38;;;20.28;53.56
8069;BME280;4077;43.702;24.896;2023-03-25T13:42:49;98803.59;;;20.26;52.41
8069;BME280;4077;43.702;24.896;2023-03-25T13:45:20;98807.38;;;20.19;52.68
8069;BME280;4077;43.702;24.896;2023-03-25T13:48:06;98812.56;;;19.97;53.08
8069;BME280;4077;43.702;24.896;2023-03-25T13:50:35;98806.13;;;19.82;53.00
8069;BME280;4077;43.702;24.896;2023-03-25T13:55:42;98799.16;;;19.81;53.36
8069;BME280;4077;43.702;24.896;2023-03-25T14:12:06;98773.13;;;19.53;51.85
8069;BME280;4077;43.702;24.896;2023-03-25T14:14:39;98775.38;;;19.39;50.68
8069;BME280;4077;43.702;24.896;2023-03-25T14:17:06;98780.84;;;19.33;50.74
8069;BME280;4077;43.702;24.896;2023-03-25T14:19:35;98768.88;;;19.26;50.72
8069;BME280;4077;43.702;24.896;2023-03-25T14:22:31;98760.94;;;19.29;51.22
8069;BME280;4077;43.702;24.896;2023-03-25T14:25:01;98762.22;;;19.40;51.69
8069;BME280;4077;43.702;24.896;2023-03-25T14:27:29;98753.31;;;19.46;52.27
8069;BME280;4077;43.702;24.896;2023-03-25T14:32:46;98756.38;;;19.34;51.49
8069;BME280;4077;43.702;24.896;2023-03-25T14:38:17;98749.66;;;19.27;52.70
8069;BME280;4077;43.702;24.896;2023-03-25T14:40:49;98740.72;;;19.32;52.99
8069;BME280;4077;43.702;24.896;2023-03-25T14:43:37;98733.72;;;19.33;53.53
8069;BME280;4077;43.702;24.896;2023-03-25T14:54:14;98738.53;;;19.20;54.70
8069;BME280;4077;43.702;24.896;2023-03-25T14:57:06;98739.19;;;19.27;53.75
8069;BME280;4077;43.702;24.896;2023-03-25T14:59:44;98728.63;;;19.30;55.57
8069;BME280;4077;43.702;24.896;2023-03-25T15:02:20;98730.31;;;19.31;54.87
8069;BME280;4077;43.702;24.896;2023-03-25T15:04:55;98732.38;;;19.23;54.27
8069;BME280;4077;43.702;24.896;2023-03-25T15:10:06;98724.94;;;19.10;56.17
8069;BME280;4077;43.702;24.896;2023-03-25T15:12:36;98726.66;;;19.11;54.28
8069;BME280;4077;43.702;24.896;2023-03-25T15:15:23;98724.03;;;19.11;54.25
8069;BME280;4077;43.702;24.896;2023-03-25T15:17:49;98731.19;;;19.06;56.32
8069;BME280;4077;43.702;24.896;2023-03-25T15:25:49;98730.94;;;18.89;55.65
8069;BME280;4077;43.702;24.896;2023-03-25T15:31:25;98730.34;;;18.81;56.01
8069;BME280;4077;43.702;24.896;2023-03-25T15:39:10;98727.94;;;18.75;58.22
8069;BME280;4077;43.702;24.896;2023-03-25T15:44:18;98727.41;;;18.64;57.65
8069;BME280;4077;43.702;24.896;2023-03-25T15:49:38;98725.78;;;18.59;57.87
8069;BME280;4077;43.702;24.896;2023-03-25T15:58:04;98721.78;;;18.49;58.47
8069;BME280;4077;43.702;24.896;2023-03-25T16:00:40;98721.25;;;18.38;57.37
8069;BME280;4077;43.702;24.896;2023-03-25T16:03:24;98714.53;;;18.31;58.85
8069;BME280;4077;43.702;24.896;2023-03-25T16:05:57;98721.69;;;18.26;60.07
8069;BME280;4077;43.702;24.896;2023-03-25T16:08:31;98723.16;;;18.07;62.04
8069;BME280;4077;43.702;24.896;2023-03-25T16:13:46;98723.00;;;17.83;62.46
8069;BME280;4077;43.702;24.896;2023-03-25T16:16:14;98719.69;;;17.78;64.23
8069;BME280;4077;43.702;24.896;2023-03-25T16:18:44;98719.91;;;17.69;63.76
8069;BME280;4077;43.702;24.896;2023-03-25T16:21:11;98716.63;;;17.62;64.43
8069;BME280;4077;43.702;24.896;2023-03-25T16:23:37;98718.75;;;17.49;67.30
8069;BME280;4077;43.702;24.896;2023-03-25T16:26:03;98713.91;;;17.37;68.36
8069;BME280;4077;43.702;24.896;2023-03-25T16:28:39;98707.22;;;17.27;68.01
8069;BME280;4077;43.702;24.896;2023-03-25T16:31:29;98718.56;;;17.26;68.77
8069;BME280;4077;43.702;24.896;2023-03-25T16:33:59;98717.59;;;17.30;68.33
8069;BME280;4077;43.702;24.896;2023-03-25T16:36:24;98709.41;;;17.11;70.17